sensor_id;sensor_type;location;lat;lon;timestamp;P1;durP1;ratioP1;P2;durP2;ratioP2
70997;SDS011;58663;52.040;4.634;2022-11-04T00:01:16;3.70;;;1.30;;
70997;SDS011;58663;52.040;4.634;2022-11-04T00:03:42;2.85;;;1.08;;
70997;SDS011;58663;52.040;4.634;2022-11-04T00:06:07;3.72;;;0.95;;
70997;SDS011;58663;52.040;4.634;2022-11-04T00:08:33;4.93;;;1.23;;
70997;SDS011;58663;52.040;4.634;2022-11-04T00:10:59;5.78;;;1.20;;
70997;SDS011;58663;52.040;4.634;2022-11-04T00:13:44;8.07;;;1.20;;
70997;SDS011;58663;52.040;4.634;2022-11-04T00:16:10;5.65;;;1.40;;
70997;SDS011;58663;52.040;4.634;2022-11-04T00:18:54;5.65;;;1.25;;
70997;SDS011;58663;52.040;4.634;2022-11-04T00:21:19;2.42;;;1.25;;
70997;SDS011;58663;52.040;4.634;2022-11-04T00:24:03;2.72;;;1.25;;
70997;SDS011;58663;52.040;4.634;2022-11-04T00:26:52;5.57;;;1.30;;
70997;SDS011;58663;52.040;4.634;2022-11-04T00:29:37;7.38;;;1.77;;
70997;SDS011;58663;52.040;4.634;2022-11-04T00:32:02;4.45;;;1.25;;
70997;SDS011;58663;52.040;4.634;2022-11-04T00:34:46;2.38;;;1.10;;
70997;SDS011;58663;52.040;4.634;2022-11-04T00:37:11;8.90;;;1.98;;
70997;SDS011;58663;52.040;4.634;2022-11-04T00:39:36;5.43;;;1.50;;
70997;SDS011;58663;52.040;4.634;2022-11-04T00:42:02;5.63;;;1.10;;
70997;SDS011;58663;52.040;4.634;2022-11-04T00:44:27;3.13;;;0.98;;
70997;SDS011;58663;52.040;4.634;2022-11-04T00:46:53;3.55;;;0.82;;
70997;SDS011;58663;52.040;4.634;2022-11-04T00:49:18;4.50;;;0.90;;
70997;SDS011;58663;52.040;4.634;2022-11-04T00:51:43;1.17;;;0.60;;
70997;SDS011;58663;52.040;4.634;2022-11-04T00:54:09;3.08;;;0.63;;
70997;SDS011;58663;52.040;4.634;2022-11-04T00:56:37;2.15;;;0.60;;
70997;SDS011;58663;52.040;4.634;2022-11-04T00:59:03;6.25;;;0.82;;
70997;SDS011;58663;52.040;4.634;2022-11-04T01:01:29;2.70;;;0.57;;
70997;SDS011;58663;52.040;4.634;2022-11-04T01:03:54;3.83;;;0.80;;
70997;SDS011;58663;52.040;4.634;2022-11-04T01:06:20;6.97;;;0.90;;
70997;SDS011;58663;52.040;4.634;2022-11-04T01:08:46;2.50;;;0.90;;
70997;SDS011;58663;52.040;4.634;2022-11-04T01:11:12;6.22;;;1.00;;
70997;SDS011;58663;52.040;4.634;2022-11-04T01:13:38;4.10;;;1.08;;
70997;SDS011;58663;52.040;4.634;2022-11-04T01:16:05;5.00;;;1.20;;
70997;SDS011;58663;52.040;4.634;2022-11-04T01:18:32;9.80;;;1.40;;
70997;SDS011;58663;52.040;4.634;2022-11-04T01:21:01;2.45;;;1.52;;
70997;SDS011;58663;52.040;4.634;2022-11-04T01:23:27;4.28;;;1.60;;
70997;SDS011;58663;52.040;4.634;2022-11-04T01:25:53;1.65;;;1.55;;
70997;SDS011;58663;52.040;4.634;2022-11-04T01:28:18;6.03;;;1.50;;
70997;SDS011;58663;52.040;4.634;2022-11-04T01:30:43;5.00;;;1.55;;
70997;SDS011;58663;52.040;4.634;2022-11-04T01:33:09;7.10;;;1.60;;
70997;SDS011;58663;52.040;4.634;2022-11-04T01:35:34;3.33;;;1.55;;
70997;SDS011;58663;52.040;4.634;2022-11-04T01:37:59;8.25;;;1.90;;
70997;SDS011;58663;52.040;4.634;2022-11-04T01:40:25;7.82;;;2.00;;
70997;SDS011;58663;52.040;4.634;2022-11-04T01:42:50;6.05;;;1.80;;
70997;SDS011;58663;52.040;4.634;2022-11-04T01:45:16;4.25;;;1.30;;
70997;SDS011;58663;52.040;4.634;2022-11-04T01:47:59;5.53;;;1.40;;
70997;SDS011;58663;52.040;4.634;2022-11-04T01:50:28;5.47;;;1.95;;
70997;SDS011;58663;52.040;4.634;2022-11-04T01:53:16;3.60;;;1.10;;
70997;SDS011;58663;52.040;4.634;2022-11-04T01:55:45;3.20;;;1.20;;
70997;SDS011;58663;52.040;4.634;2022-11-04T01:58:13;6.03;;;0.90;;
70997;SDS011;58663;52.040;4.634;2022-11-04T02:00:40;4.72;;;1.20;;
70997;SDS011;58663;52.040;4.634;2022-11-04T02:03:07;3.42;;;1.10;;
70997;SDS011;58663;52.040;4.634;2022-11-04T02:05:35;5.28;;;1.30;;
70997;SDS011;58663;52.040;4.634;2022-11-04T02:08:01;3.42;;;1.25;;
70997;SDS011;58663;52.040;4.634;2022-11-04T02:10:29;4.50;;;1.40;;
70997;SDS011;58663;52.040;4.634;2022-11-04T02:12:55;4.35;;;1.75;;
70997;SDS011;58663;52.040;4.634;2022-11-04T02:23:45;3.47;;;1.95;;
70997;SDS011;58663;52.040;4.634;2022-11-04T02:32:02;5.03;;;1.98;;
70997;SDS011;58663;52.040;4.634;2022-11-04T02:36:57;4.68;;;2.58;;
70997;SDS011;58663;52.040;4.634;2022-11-04T02:39:43;7.22;;;2.60;;
70997;SDS011;58663;52.040;4.634;2022-11-04T02:42:23;6.13;;;2.50;;
70997;SDS011;58663;52.040;4.634;2022-11-04T02:47:27;4.18;;;2.75;;
70997;SDS011;58663;52.040;4.634;2022-11-04T02:49:54;6.13;;;3.08;;
70997;SDS011;58663;52.040;4.634;2022-11-04T02:54:56;10.35;;;3.42;;
70997;SDS011;58663;52.040;4.634;2022-11-04T02:57:26;9.23;;;4.20;;
70997;SDS011;58663;52.040;4.634;2022-11-04T03:00:01;12.05;;;4.25;;
70997;SDS011;58663;52.040;4.634;2022-11-04T03:02:50;10.70;;;4.90;;
70997;SDS011;58663;52.040;4.634;2022-11-04T03:05:17;9.77;;;5.47;;
70997;SDS011;58663;52.040;4.634;2022-11-04T03:07:45;13.25;;;5.95;;
70997;SDS011;58663;52.040;4.634;2022-11-04T03:10:16;12.75;;;6.38;;
70997;SDS011;58663;52.040;4.634;2022-11-04T03:12:47;19.02;;;6.35;;
70997;SDS011;58663;52.040;4.634;2022-11-04T03:15:22;18.65;;;6.80;;
70997;SDS011;58663;52.040;4.634;2022-11-04T03:20:21;18.25;;;6.88;;
70997;SDS011;58663;52.040;4.634;2022-11-04T03:22:48;15.65;;;7.53;;
70997;SDS011;58663;52.040;4.634;2022-11-04T03:25:14;24.42;;;8.05;;
70997;SDS011;58663;52.040;4.634;2022-11-04T03:27:56;15.20;;;6.72;;
70997;SDS011;58663;52.040;4.634;2022-11-04T03:30:37;15.50;;;7.13;;
70997;SDS011;58663;52.040;4.634;2022-11-04T03:33:07;17.67;;;7.18;;
70997;SDS011;58663;52.040;4.634;2022-11-04T03:35:42;17.83;;;8.13;;
70997;SDS011;58663;52.040;4.634;2022-11-04T03:38:08;22.08;;;8.25;;
70997;SDS011;58663;52.040;4.634;2022-11-04T03:40:33;21.35;;;8.20;;
70997;SDS011;58663;52.040;4.634;2022-11-04T03:43:21;20.00;;;8.30;;
70997;SDS011;58663;52.040;4.634;2022-11-04T03:45:49;19.55;;;9.30;;
70997;SDS011;58663;52.040;4.634;2022-11-04T03:48:15;19.55;;;8.23;;
70997;SDS011;58663;52.040;4.634;2022-11-04T03:50:41;24.88;;;10.18;;
70997;SDS011;58663;52.040;4.634;2022-11-04T03:53:08;27.42;;;10.68;;
70997;SDS011;58663;52.040;4.634;2022-11-04T04:00:48;23.00;;;9.13;;
70997;SDS011;58663;52.040;4.634;2022-11-04T04:03:20;21.52;;;9.93;;
70997;SDS011;58663;52.040;4.634;2022-11-04T04:08:34;27.52;;;9.90;;
70997;SDS011;58663;52.040;4.634;2022-11-04T04:14:00;20.70;;;10.00;;
70997;SDS011;58663;52.040;4.634;2022-11-04T04:16:39;22.17;;;9.90;;
70997;SDS011;58663;52.040;4.634;2022-11-04T04:19:09;25.42;;;9.93;;
70997;SDS011;58663;52.040;4.634;2022-11-04T04:21:39;20.95;;;9.77;;
70997;SDS011;58663;52.040;4.634;2022-11-04T04:24:09;27.38;;;10.20;;
70997;SDS011;58663;52.040;4.634;2022-11-04T04:26:55;26.27;;;9.85;;
70997;SDS011;58663;52.040;4.634;2022-11-04T04:29:39;25.48;;;9.80;;
70997;SDS011;58663;52.040;4.634;2022-11-04T04:32:07;20.98;;;9.23;;
70997;SDS011;58663;52.040;4.634;2022-11-04T04:34:33;22.25;;;9.27;;
70997;SDS011;58663;52.040;4.634;2022-11-04T04:37:13;27.98;;;10.32;;
70997;SDS011;58663;52.040;4.634;2022-11-04T04:39:44;18.73;;;8.70;;
70997;SDS011;58663;52.040;4.634;2022-11-04T04:42:40;21.52;;;9.40;;
70997;SDS011;58663;52.040;4.634;2022-11-04T04:45:26;22.90;;;10.07;;
70997;SDS011;58663;52.040;4.634;2022-11-04T04:47:55;23.38;;;9.90;;
70997;SDS011;58663;52.040;4.634;2022-11-04T04:50:21;25.10;;;10.35;;
70997;SDS011;58663;52.040;4.634;2022-11-04T04:52:47;26.25;;;10.27;;
70997;SDS011;58663;52.040;4.634;2022-11-04T04:55:14;26.52;;;10.38;;
70997;SDS011;58663;52.040;4.634;2022-11-04T04:57:40;24.30;;;9.75;;
70997;SDS011;58663;52.040;4.634;2022-11-04T05:00:07;28.40;;;10.35;;
70997;SDS011;58663;52.040;4.634;2022-11-04T05:02:34;28.60;;;10.48;;
70997;SDS011;58663;52.040;4.634;2022-11-04T05:04:59;27.60;;;10.70;;
70997;SDS011;58663;52.040;4.634;2022-11-04T05:07:25;21.45;;;9.43;;
70997;SDS011;58663;52.040;4.634;2022-11-04T05:09:50;26.30;;;10.13;;
70997;SDS011;58663;52.040;4.634;2022-11-04T05:12:16;27.27;;;9.93;;
70997;SDS011;58663;52.040;4.634;2022-11-04T05:14:41;31.77;;;11.23;;
70997;SDS011;58663;52.040;4.634;2022-11-04T05:17:07;28.92;;;10.38;;
70997;SDS011;58663;52.040;4.634;2022-11-04T05:19:32;34.30;;;11.32;;
70997;SDS011;58663;52.040;4.634;2022-11-04T05:21:58;33.03;;;11.75;;
70997;SDS011;58663;52.040;4.634;2022-11-04T05:24:23;30.95;;;11.65;;
70997;SDS011;58663;52.040;4.634;2022-11-04T05:26:48;27.08;;;10.73;;
70997;SDS011;58663;52.040;4.634;2022-11-04T05:29:14;38.53;;;12.70;;
70997;SDS011;58663;52.040;4.634;2022-11-04T05:31:39;34.28;;;11.15;;
70997;SDS011;58663;52.040;4.634;2022-11-04T05:34:05;29.90;;;12.00;;
70997;SDS011;58663;52.040;4.634;2022-11-04T05:36:30;29.42;;;11.38;;
70997;SDS011;58663;52.040;4.634;2022-11-04T05:38:57;33.70;;;11.00;;
70997;SDS011;58663;52.040;4.634;2022-11-04T05:41:23;37.53;;;12.65;;
70997;SDS011;58663;52.040;4.634;2022-11-04T05:43:52;39.22;;;11.80;;
70997;SDS011;58663;52.040;4.634;2022-11-04T05:46:22;30.85;;;10.15;;
70997;SDS011;58663;52.040;4.634;2022-11-04T05:48:48;35.30;;;12.18;;
70997;SDS011;58663;52.040;4.634;2022-11-04T05:51:14;38.47;;;12.02;;
70997;SDS011;58663;52.040;4.634;2022-11-04T05:53:40;30.90;;;11.07;;
70997;SDS011;58663;52.040;4.634;2022-11-04T05:56:06;35.25;;;12.30;;
70997;SDS011;58663;52.040;4.634;2022-11-04T05:58:32;32.42;;;11.85;;
70997;SDS011;58663;52.040;4.634;2022-11-04T06:01:11;35.42;;;11.75;;
70997;SDS011;58663;52.040;4.634;2022-11-04T06:03:37;32.58;;;11.52;;
70997;SDS011;58663;52.040;4.634;2022-11-04T06:06:03;30.13;;;11.07;;
70997;SDS011;58663;52.040;4.634;2022-11-04T06:08:28;33.17;;;10.80;;
70997;SDS011;58663;52.040;4.634;2022-11-04T06:10:55;27.10;;;10.60;;
70997;SDS011;58663;52.040;4.634;2022-11-04T06:13:20;30.55;;;11.25;;
70997;SDS011;58663;52.040;4.634;2022-11-04T06:15:46;23.63;;;9.95;;
70997;SDS011;58663;52.040;4.634;2022-11-04T06:18:11;34.75;;;10.75;;
70997;SDS011;58663;52.040;4.634;2022-11-04T06:20:36;30.45;;;10.25;;
70997;SDS011;58663;52.040;4.634;2022-11-04T06:23:02;30.35;;;11.02;;
70997;SDS011;58663;52.040;4.634;2022-11-04T06:25:27;28.30;;;10.68;;
70997;SDS011;58663;52.040;4.634;2022-11-04T06:27:52;31.40;;;10.85;;
70997;SDS011;58663;52.040;4.634;2022-11-04T06:30:18;30.90;;;11.05;;
70997;SDS011;58663;52.040;4.634;2022-11-04T06:32:43;28.88;;;10.80;;
70997;SDS011;58663;52.040;4.634;2022-11-04T06:35:08;29.70;;;10.40;;
70997;SDS011;58663;52.040;4.634;2022-11-04T06:37:34;28.27;;;10.38;;
70997;SDS011;58663;52.040;4.634;2022-11-04T06:39:59;26.17;;;11.43;;
70997;SDS011;58663;52.040;4.634;2022-11-04T06:42:24;29.98;;;9.82;;
70997;SDS011;58663;52.040;4.634;2022-11-04T06:44:51;26.15;;;9.75;;
70997;SDS011;58663;52.040;4.634;2022-11-04T06:47:16;22.58;;;8.73;;
70997;SDS011;58663;52.040;4.634;2022-11-04T06:49:42;21.13;;;8.88;;
70997;SDS011;58663;52.040;4.634;2022-11-04T06:52:07;27.42;;;8.32;;
70997;SDS011;58663;52.040;4.634;2022-11-04T06:54:33;27.98;;;9.65;;
70997;SDS011;58663;52.040;4.634;2022-11-04T06:56:58;26.50;;;8.50;;
70997;SDS011;58663;52.040;4.634;2022-11-04T06:59:24;26.23;;;7.72;;
70997;SDS011;58663;52.040;4.634;2022-11-04T07:01:49;22.70;;;8.18;;
70997;SDS011;58663;52.040;4.634;2022-11-04T07:04:15;27.65;;;8.68;;
70997;SDS011;58663;52.040;4.634;2022-11-04T07:06:41;16.20;;;7.05;;
70997;SDS011;58663;52.040;4.634;2022-11-04T07:09:08;23.75;;;7.90;;
70997;SDS011;58663;52.040;4.634;2022-11-04T07:11:35;21.15;;;7.45;;
70997;SDS011;58663;52.040;4.634;2022-11-04T07:14:00;22.40;;;8.05;;
70997;SDS011;58663;52.040;4.634;2022-11-04T07:16:26;19.48;;;7.90;;
70997;SDS011;58663;52.040;4.634;2022-11-04T07:18:55;20.95;;;7.43;;
70997;SDS011;58663;52.040;4.634;2022-11-04T07:21:20;17.92;;;8.07;;
70997;SDS011;58663;52.040;4.634;2022-11-04T07:23:45;25.23;;;8.10;;
70997;SDS011;58663;52.040;4.634;2022-11-04T07:26:11;21.33;;;7.65;;
70997;SDS011;58663;52.040;4.634;2022-11-04T07:28:37;22.27;;;7.43;;
70997;SDS011;58663;52.040;4.634;2022-11-04T07:31:03;20.83;;;8.40;;
70997;SDS011;58663;52.040;4.634;2022-11-04T07:33:29;25.98;;;8.30;;
70997;SDS011;58663;52.040;4.634;2022-11-04T07:35:56;26.50;;;8.02;;
70997;SDS011;58663;52.040;4.634;2022-11-04T07:38:22;29.88;;;8.98;;
70997;SDS011;58663;52.040;4.634;2022-11-04T07:40:47;32.67;;;9.52;;
70997;SDS011;58663;52.040;4.634;2022-11-04T07:43:13;32.85;;;9.80;;
70997;SDS011;58663;52.040;4.634;2022-11-04T07:45:39;34.28;;;10.68;;
70997;SDS011;58663;52.040;4.634;2022-11-04T07:48:04;27.02;;;10.13;;
70997;SDS011;58663;52.040;4.634;2022-11-04T07:50:30;40.10;;;12.32;;
70997;SDS011;58663;52.040;4.634;2022-11-04T07:52:55;32.95;;;10.70;;
70997;SDS011;58663;52.040;4.634;2022-11-04T07:55:21;34.60;;;10.75;;
70997;SDS011;58663;52.040;4.634;2022-11-04T07:57:46;39.92;;;11.60;;
70997;SDS011;58663;52.040;4.634;2022-11-04T08:00:13;40.47;;;12.38;;
70997;SDS011;58663;52.040;4.634;2022-11-04T08:02:40;39.90;;;12.40;;
70997;SDS011;58663;52.040;4.634;2022-11-04T08:05:06;41.22;;;13.10;;
70997;SDS011;58663;52.040;4.634;2022-11-04T08:07:32;37.60;;;12.77;;
70997;SDS011;58663;52.040;4.634;2022-11-04T08:09:57;39.63;;;12.88;;
70997;SDS011;58663;52.040;4.634;2022-11-04T08:12:22;40.13;;;12.30;;
70997;SDS011;58663;52.040;4.634;2022-11-04T08:14:48;42.20;;;12.60;;
70997;SDS011;58663;52.040;4.634;2022-11-04T08:17:14;46.97;;;12.73;;
70997;SDS011;58663;52.040;4.634;2022-11-04T08:19:40;31.58;;;11.98;;
70997;SDS011;58663;52.040;4.634;2022-11-04T08:22:05;36.75;;;12.63;;
70997;SDS011;58663;52.040;4.634;2022-11-04T08:24:32;38.00;;;11.95;;
70997;SDS011;58663;52.040;4.634;2022-11-04T08:26:57;33.80;;;11.15;;
70997;SDS011;58663;52.040;4.634;2022-11-04T08:29:23;37.33;;;11.85;;
70997;SDS011;58663;52.040;4.634;2022-11-04T08:31:48;32.17;;;11.50;;
70997;SDS011;58663;52.040;4.634;2022-11-04T08:34:14;33.83;;;11.48;;
70997;SDS011;58663;52.040;4.634;2022-11-04T08:36:41;31.35;;;11.65;;
70997;SDS011;58663;52.040;4.634;2022-11-04T08:39:06;34.97;;;13.93;;
70997;SDS011;58663;52.040;4.634;2022-11-04T08:41:32;55.25;;;16.10;;
70997;SDS011;58663;52.040;4.634;2022-11-04T08:43:59;44.45;;;15.75;;
70997;SDS011;58663;52.040;4.634;2022-11-04T08:46:26;57.03;;;16.80;;
70997;SDS011;58663;52.040;4.634;2022-11-04T08:48:52;51.33;;;17.02;;
70997;SDS011;58663;52.040;4.634;2022-11-04T08:51:18;62.35;;;18.85;;
70997;SDS011;58663;52.040;4.634;2022-11-04T08:53:46;50.33;;;16.52;;
70997;SDS011;58663;52.040;4.634;2022-11-04T08:56:12;42.80;;;16.20;;
70997;SDS011;58663;52.040;4.634;2022-11-04T08:58:40;46.47;;;16.52;;
70997;SDS011;58663;52.040;4.634;2022-11-04T09:01:06;43.85;;;16.20;;
70997;SDS011;58663;52.040;4.634;2022-11-04T09:03:32;53.63;;;15.73;;
70997;SDS011;58663;52.040;4.634;2022-11-04T09:05:58;48.78;;;16.65;;
70997;SDS011;58663;52.040;4.634;2022-11-04T09:08:24;47.92;;;16.90;;
70997;SDS011;58663;52.040;4.634;2022-11-04T09:10:49;30.88;;;13.75;;
70997;SDS011;58663;52.040;4.634;2022-11-04T09:13:15;25.70;;;12.65;;
70997;SDS011;58663;52.040;4.634;2022-11-04T09:15:40;34.05;;;12.70;;
70997;SDS011;58663;52.040;4.634;2022-11-04T09:18:06;21.42;;;11.25;;
70997;SDS011;58663;52.040;4.634;2022-11-04T09:20:32;29.15;;;12.00;;
70997;SDS011;58663;52.040;4.634;2022-11-04T09:22:58;31.40;;;13.57;;
70997;SDS011;58663;52.040;4.634;2022-11-04T09:25:23;28.17;;;12.07;;
70997;SDS011;58663;52.040;4.634;2022-11-04T09:27:49;24.45;;;12.43;;
70997;SDS011;58663;52.040;4.634;2022-11-04T09:30:14;21.83;;;11.18;;
70997;SDS011;58663;52.040;4.634;2022-11-04T09:32:39;28.05;;;12.20;;
70997;SDS011;58663;52.040;4.634;2022-11-04T09:35:05;27.23;;;12.02;;
70997;SDS011;58663;52.040;4.634;2022-11-04T09:37:31;19.67;;;10.65;;
70997;SDS011;58663;52.040;4.634;2022-11-04T09:39:56;22.67;;;11.15;;
70997;SDS011;58663;52.040;4.634;2022-11-04T09:42:34;26.13;;;12.32;;
70997;SDS011;58663;52.040;4.634;2022-11-04T09:45:28;17.80;;;10.63;;
70997;SDS011;58663;52.040;4.634;2022-11-04T09:47:56;22.17;;;11.02;;
70997;SDS011;58663;52.040;4.634;2022-11-04T09:50:26;19.00;;;10.57;;
70997;SDS011;58663;52.040;4.634;2022-11-04T09:53:04;18.08;;;11.70;;
70997;SDS011;58663;52.040;4.634;2022-11-04T09:56:19;19.88;;;11.30;;
70997;SDS011;58663;52.040;4.634;2022-11-04T09:58:22;17.83;;;10.32;;
70997;SDS011;58663;52.040;4.634;2022-11-04T10:00:53;26.23;;;11.25;;
70997;SDS011;58663;52.040;4.634;2022-11-04T10:14:44;27.63;;;12.18;;
70997;SDS011;58663;52.040;4.634;2022-11-04T10:22:32;17.83;;;10.52;;
70997;SDS011;58663;52.040;4.634;2022-11-04T10:27:37;27.33;;;12.02;;
70997;SDS011;58663;52.040;4.634;2022-11-04T10:30:06;18.10;;;11.82;;
70997;SDS011;58663;52.040;4.634;2022-11-04T10:32:58;17.83;;;11.32;;
70997;SDS011;58663;52.040;4.634;2022-11-04T10:35:38;20.55;;;11.80;;
70997;SDS011;58663;52.040;4.634;2022-11-04T10:38:16;19.40;;;11.75;;
70997;SDS011;58663;52.040;4.634;2022-11-04T10:41:00;17.63;;;9.45;;
70997;SDS011;58663;52.040;4.634;2022-11-04T10:43:33;14.55;;;9.80;;
70997;SDS011;58663;52.040;4.634;2022-11-04T10:51:43;15.73;;;10.13;;
70997;SDS011;58663;52.040;4.634;2022-11-04T10:54:08;16.02;;;10.85;;
70997;SDS011;58663;52.040;4.634;2022-11-04T11:01:56;13.23;;;10.27;;
70997;SDS011;58663;52.040;4.634;2022-11-04T11:04:24;17.75;;;10.13;;
70997;SDS011;58663;52.040;4.634;2022-11-04T11:06:51;15.63;;;9.45;;
70997;SDS011;58663;52.040;4.634;2022-11-04T11:09:18;16.95;;;10.00;;
70997;SDS011;58663;52.040;4.634;2022-11-04T11:11:49;19.60;;;9.90;;
70997;SDS011;58663;52.040;4.634;2022-11-04T11:16:54;14.85;;;8.60;;
70997;SDS011;58663;52.040;4.634;2022-11-04T11:19:21;13.00;;;8.90;;
70997;SDS011;58663;52.040;4.634;2022-11-04T11:21:50;18.05;;;9.60;;
70997;SDS011;58663;52.040;4.634;2022-11-04T11:24:20;12.90;;;8.45;;
70997;SDS011;58663;52.040;4.634;2022-11-04T11:26:48;11.45;;;8.45;;
70997;SDS011;58663;52.040;4.634;2022-11-04T11:29:19;11.32;;;6.68;;
70997;SDS011;58663;52.040;4.634;2022-11-04T11:32:17;8.30;;;6.03;;
70997;SDS011;58663;52.040;4.634;2022-11-04T11:34:51;5.95;;;3.60;;
70997;SDS011;58663;52.040;4.634;2022-11-04T11:37:21;10.02;;;3.00;;
70997;SDS011;58663;52.040;4.634;2022-11-04T11:39:48;10.75;;;3.67;;
70997;SDS011;58663;52.040;4.634;2022-11-04T11:42:13;6.13;;;2.60;;
70997;SDS011;58663;52.040;4.634;2022-11-04T11:44:55;6.22;;;2.33;;
70997;SDS011;58663;52.040;4.634;2022-11-04T11:55:33;0.85;;;0.68;;
70997;SDS011;58663;52.040;4.634;2022-11-04T12:03:31;1.88;;;0.40;;
70997;SDS011;58663;52.040;4.634;2022-11-04T12:11:48;1.00;;;0.60;;
70997;SDS011;58663;52.040;4.634;2022-11-04T12:14:19;1.95;;;0.70;;
70997;SDS011;58663;52.040;4.634;2022-11-04T12:25:23;2.25;;;0.82;;
70997;SDS011;58663;52.040;4.634;2022-11-04T12:28:34;5.28;;;0.80;;
70997;SDS011;58663;52.040;4.634;2022-11-04T12:31:37;1.05;;;0.63;;
70997;SDS011;58663;52.040;4.634;2022-11-04T12:44:38;2.78;;;0.50;;
70997;SDS011;58663;52.040;4.634;2022-11-04T12:52:48;1.30;;;0.50;;
70997;SDS011;58663;52.040;4.634;2022-11-04T12:58:19;1.85;;;0.50;;
70997;SDS011;58663;52.040;4.634;2022-11-04T13:00:57;1.30;;;0.47;;
70997;SDS011;58663;52.040;4.634;2022-11-04T13:06:04;1.67;;;0.60;;
70997;SDS011;58663;52.040;4.634;2022-11-04T13:08:37;1.33;;;0.50;;
70997;SDS011;58663;52.040;4.634;2022-11-04T13:11:13;1.58;;;0.30;;
70997;SDS011;58663;52.040;4.634;2022-11-04T13:16:18;3.47;;;0.60;;
70997;SDS011;58663;52.040;4.634;2022-11-04T13:18:44;1.65;;;0.47;;
70997;SDS011;58663;52.040;4.634;2022-11-04T13:21:31;2.03;;;0.68;;
70997;SDS011;58663;52.040;4.634;2022-11-04T13:26:29;1.13;;;0.60;;
70997;SDS011;58663;52.040;4.634;2022-11-04T13:29:28;2.28;;;0.45;;
70997;SDS011;58663;52.040;4.634;2022-11-04T13:31:51;0.90;;;0.57;;
70997;SDS011;58663;52.040;4.634;2022-11-04T13:39:40;1.23;;;0.52;;
70997;SDS011;58663;52.040;4.634;2022-11-04T13:44:40;6.00;;;0.80;;
70997;SDS011;58663;52.040;4.634;2022-11-04T13:47:13;1.90;;;0.55;;
70997;SDS011;58663;52.040;4.634;2022-11-04T13:49:59;3.45;;;0.77;;
70997;SDS011;58663;52.040;4.634;2022-11-04T13:52:26;1.17;;;0.35;;
70997;SDS011;58663;52.040;4.634;2022-11-04T13:54:59;5.40;;;0.68;;
70997;SDS011;58663;52.040;4.634;2022-11-04T13:57:30;0.80;;;0.60;;
70997;SDS011;58663;52.040;4.634;2022-11-04T14:18:32;2.80;;;0.88;;
70997;SDS011;58663;52.040;4.634;2022-11-04T14:23:40;3.15;;;0.80;;
70997;SDS011;58663;52.040;4.634;2022-11-04T14:26:11;1.40;;;0.75;;
70997;SDS011;58663;52.040;4.634;2022-11-04T14:28:37;3.65;;;0.80;;
70997;SDS011;58663;52.040;4.634;2022-11-04T14:31:09;1.40;;;0.75;;
70997;SDS011;58663;52.040;4.634;2022-11-04T14:39:02;1.95;;;0.55;;
70997;SDS011;58663;52.040;4.634;2022-11-04T14:52:19;8.13;;;1.10;;
70997;SDS011;58663;52.040;4.634;2022-11-04T14:57:36;3.15;;;1.10;;
70997;SDS011;58663;52.040;4.634;2022-11-04T15:02:47;3.03;;;1.10;;
70997;SDS011;58663;52.040;4.634;2022-11-04T15:05:20;2.35;;;1.08;;
70997;SDS011;58663;52.040;4.634;2022-11-04T15:07:47;1.33;;;0.93;;
70997;SDS011;58663;52.040;4.634;2022-11-04T15:10:18;7.35;;;1.20;;
70997;SDS011;58663;52.040;4.634;2022-11-04T15:12:46;5.07;;;1.15;;
70997;SDS011;58663;52.040;4.634;2022-11-04T15:20:54;3.03;;;0.85;;
70997;SDS011;58663;52.040;4.634;2022-11-04T15:23:25;2.30;;;1.30;;
70997;SDS011;58663;52.040;4.634;2022-11-04T15:25:53;3.83;;;1.20;;
70997;SDS011;58663;52.040;4.634;2022-11-04T15:28:22;7.82;;;2.03;;
70997;SDS011;58663;52.040;4.634;2022-11-04T15:30:56;5.57;;;1.38;;
70997;SDS011;58663;52.040;4.634;2022-11-04T15:33:25;6.00;;;1.60;;
70997;SDS011;58663;52.040;4.634;2022-11-04T15:35:52;4.28;;;1.10;;
70997;SDS011;58663;52.040;4.634;2022-11-04T15:38:17;2.88;;;1.10;;
70997;SDS011;58663;52.040;4.634;2022-11-04T15:40:43;5.43;;;1.30;;
70997;SDS011;58663;52.040;4.634;2022-11-04T15:43:09;7.22;;;1.67;;
70997;SDS011;58663;52.040;4.634;2022-11-04T15:45:49;4.43;;;1.90;;
70997;SDS011;58663;52.040;4.634;2022-11-04T15:48:28;5.63;;;1.77;;
70997;SDS011;58663;52.040;4.634;2022-11-04T15:56:14;6.95;;;1.40;;
70997;SDS011;58663;52.040;4.634;2022-11-04T15:58:40;8.55;;;1.52;;
70997;SDS011;58663;52.040;4.634;2022-11-04T16:01:07;2.90;;;1.30;;
70997;SDS011;58663;52.040;4.634;2022-11-04T16:03:37;4.32;;;1.60;;
70997;SDS011;58663;52.040;4.634;2022-11-04T16:06:03;5.60;;;1.48;;
70997;SDS011;58663;52.040;4.634;2022-11-04T16:08:30;8.18;;;1.90;;
70997;SDS011;58663;52.040;4.634;2022-11-04T16:11:10;8.05;;;1.73;;
70997;SDS011;58663;52.040;4.634;2022-11-04T16:13:37;2.15;;;1.10;;
70997;SDS011;58663;52.040;4.634;2022-11-04T16:21:27;5.43;;;1.92;;
70997;SDS011;58663;52.040;4.634;2022-11-04T16:26:36;6.28;;;1.73;;
70997;SDS011;58663;52.040;4.634;2022-11-04T16:29:05;6.43;;;2.10;;
70997;SDS011;58663;52.040;4.634;2022-11-04T16:31:33;6.72;;;1.85;;
70997;SDS011;58663;52.040;4.634;2022-11-04T16:34:00;7.90;;;1.83;;
70997;SDS011;58663;52.040;4.634;2022-11-04T16:36:26;3.10;;;1.73;;
70997;SDS011;58663;52.040;4.634;2022-11-04T16:41:17;5.03;;;1.95;;
70997;SDS011;58663;52.040;4.634;2022-11-04T16:43:42;4.97;;;2.10;;
70997;SDS011;58663;52.040;4.634;2022-11-04T16:46:07;5.90;;;1.92;;
70997;SDS011;58663;52.040;4.634;2022-11-04T16:48:35;4.47;;;2.22;;
70997;SDS011;58663;52.040;4.634;2022-11-04T16:51:00;6.00;;;2.42;;
70997;SDS011;58663;52.040;4.634;2022-11-04T16:53:26;5.80;;;2.20;;
70997;SDS011;58663;52.040;4.634;2022-11-04T16:55:51;6.05;;;2.13;;
70997;SDS011;58663;52.040;4.634;2022-11-04T16:58:18;6.00;;;2.05;;
70997;SDS011;58663;52.040;4.634;2022-11-04T17:00:43;8.68;;;2.17;;
70997;SDS011;58663;52.040;4.634;2022-11-04T17:03:18;6.18;;;2.67;;
70997;SDS011;58663;52.040;4.634;2022-11-04T17:05:48;5.85;;;2.50;;
70997;SDS011;58663;52.040;4.634;2022-11-04T17:08:14;6.72;;;3.00;;
70997;SDS011;58663;52.040;4.634;2022-11-04T17:10:39;6.65;;;2.78;;
70997;SDS011;58663;52.040;4.634;2022-11-04T17:13:06;7.22;;;2.83;;
70997;SDS011;58663;52.040;4.634;2022-11-04T17:15:32;7.35;;;2.90;;
70997;SDS011;58663;52.040;4.634;2022-11-04T17:17:57;9.70;;;3.17;;
70997;SDS011;58663;52.040;4.634;2022-11-04T17:20:22;6.63;;;3.38;;
70997;SDS011;58663;52.040;4.634;2022-11-04T17:22:48;7.60;;;2.85;;
70997;SDS011;58663;52.040;4.634;2022-11-04T17:25:23;6.45;;;3.00;;
70997;SDS011;58663;52.040;4.634;2022-11-04T17:27:50;5.40;;;2.45;;
70997;SDS011;58663;52.040;4.634;2022-11-04T17:30:16;6.00;;;3.42;;
70997;SDS011;58663;52.040;4.634;2022-11-04T17:32:42;8.27;;;2.90;;
70997;SDS011;58663;52.040;4.634;2022-11-04T17:35:09;7.72;;;3.28;;
70997;SDS011;58663;52.040;4.634;2022-11-04T17:37:35;6.53;;;3.55;;
70997;SDS011;58663;52.040;4.634;2022-11-04T17:40:01;5.63;;;2.83;;
70997;SDS011;58663;52.040;4.634;2022-11-04T17:42:26;7.13;;;3.47;;
70997;SDS011;58663;52.040;4.634;2022-11-04T17:45:10;8.38;;;3.22;;
70997;SDS011;58663;52.040;4.634;2022-11-04T17:47:36;14.55;;;4.10;;
70997;SDS011;58663;52.040;4.634;2022-11-04T17:50:02;13.88;;;4.60;;
70997;SDS011;58663;52.040;4.634;2022-11-04T17:52:29;5.32;;;3.45;;
70997;SDS011;58663;52.040;4.634;2022-11-04T17:54:55;9.50;;;3.70;;
70997;SDS011;58663;52.040;4.634;2022-11-04T17:57:20;9.48;;;3.90;;
70997;SDS011;58663;52.040;4.634;2022-11-04T17:59:45;9.95;;;4.05;;
70997;SDS011;58663;52.040;4.634;2022-11-04T18:02:11;7.63;;;3.85;;